Maryland METAR Reports


Distance/Direction noted is from Ellicott City, MD as the crow flies

KCBE - Cumberland - 118 miles WNW
Updated: Fri, 04/25/2014 12:18 AM
Clear
Clear
 Wind from calm
Wind: Calm
Temperature: 52°F
Dew Point: 25°F
Humidity: 35%
Barometer: 30.03 inHg
Clouds: Clear
Visibility: 10 miles
2014/04/25 04:18 KCBE 250418Z AUTO 00000KT 10SM CLR 11/M04 A3003 RMK AO1
KHGR - Hagerstown - 57 miles NW
Updated: Thu, 04/24/2014 11:53 PM
Clear
Clear
 Wind from E
Wind: E 6 mph
Temperature: 52°F
Dew Point: 21°F
Humidity: 30%
Barometer: 30.01 inHg
Clouds: Clear
Visibility: 10 miles
2014/04/25 03:53 KHGR 250353Z AUTO 10005KT 10SM CLR 11/M06 A3001 RMK AO2 SLP173 T01061056
 
KFDK - Frederick - 34 miles NW
Updated: Fri, 04/25/2014 12:15 AM
Clear
Clear
 Wind from calm
Wind: Calm
Temperature: 43°F
Dew Point: 41°F
Humidity: 93%
Barometer: 30.05 inHg
Clouds: Clear
Visibility: 10 miles
2014/04/25 04:15 KFDK 250415Z AUTO 00000KT 10SM CLR 06/05 A3005 RMK AO2
KGAI - Gaithersburg - 26 miles SW
Updated: Fri, 04/25/2014 12:15 AM
Clear
Clear
 Wind from calm
Wind: Calm
Temperature: 45°F
Dew Point: 32°F
Humidity: 61%
Barometer: 30.05 inHg
Clouds: Clear
Visibility: 10 miles
2014/04/25 04:15 KGAI 250415Z AUTO 00000KT 10SM CLR 07/00 A3005 RMK AO1
 
KBWI - BWI Airport - 15 miles SE
Updated: Thu, 04/24/2014 11:54 PM
Mostly Cloudy
Mostly Cloudy
 Wind from calm
Wind: Calm
Temperature: 46°F
Dew Point: 28°F
Humidity: 50%
Barometer: 30.02 inHg
Clouds: Mostly Cloudy
Visibility: 10 miles
Cloud Details: Mostly Cloudy 25000 ft
2014/04/25 03:54 KBWI 250354Z 00000KT 10SM BKN250 08/M02 A3002 RMK AO2 SLP167 T00831017
KNAK - Annapolis - 32 miles SSE
Updated: Thu, 04/24/2014 11:54 PM
Clear
Clear
 Wind from calm
Wind: Calm
Temperature: 50°F
Dew Point: 37°F
Humidity: 62%
Barometer: 30.03 inHg
Clouds: Clear
Visibility: 10 miles
2014/04/25 03:54 KNAK 250354Z AUTO 00000KT 10SM CLR 10/03 A3003 RMK AO2 SLP171 T01000033
 
KESN - Easton - 63 miles SE
Updated: Fri, 04/25/2014 12:28 AM
Clear
Clear
 Wind from calm
Wind: Calm
Temperature: 50°F
Dew Point: 36°F
Humidity: 58%
Barometer: 30.08 inHg
Clouds: Clear
Visibility: 10 miles
2014/04/25 04:28 KESN 250428Z AUTO 00000KT 10SM CLR 10/02 A3008 RMK AO2 T00990019
KSBY - Salisbury - 112 miles SE
Updated: Thu, 04/24/2014 11:54 PM
Clear
Clear
 Wind from calm
Wind: Calm
Temperature: 45°F
Dew Point: 34°F
Humidity: 66%
Barometer: 30.04 inHg
Clouds: Clear
Visibility: 10 miles
2014/04/25 03:54 KSBY 250354Z AUTO 00000KT 10SM CLR 07/01 A3004 RMK AO2 SLP175 T00720006